sensor_id;sensor_type;location;lat;lon;timestamp;P1;durP1;ratioP1;P2;durP2;ratioP2
24729;SDS011;12832;52.392;13.066;2022-11-23T00:01:30;5.05;;;4.65;;
24729;SDS011;12832;52.392;13.066;2022-11-23T00:04:00;4.82;;;4.43;;
24729;SDS011;12832;52.392;13.066;2022-11-23T00:06:28;4.82;;;4.43;;
24729;SDS011;12832;52.392;13.066;2022-11-23T00:08:55;4.43;;;4.10;;
24729;SDS011;12832;52.392;13.066;2022-11-23T00:11:22;5.35;;;4.95;;
24729;SDS011;12832;52.392;13.066;2022-11-23T00:13:50;5.00;;;4.60;;
24729;SDS011;12832;52.392;13.066;2022-11-23T00:16:17;4.95;;;4.55;;
24729;SDS011;12832;52.392;13.066;2022-11-23T00:18:45;5.05;;;4.63;;
24729;SDS011;12832;52.392;13.066;2022-11-23T00:21:13;4.90;;;4.50;;
24729;SDS011;12832;52.392;13.066;2022-11-23T00:23:40;5.30;;;4.50;;
24729;SDS011;12832;52.392;13.066;2022-11-23T00:26:07;4.78;;;4.38;;
24729;SDS011;12832;52.392;13.066;2022-11-23T00:28:34;5.10;;;4.70;;
24729;SDS011;12832;52.392;13.066;2022-11-23T00:31:03;4.72;;;4.32;;
24729;SDS011;12832;52.392;13.066;2022-11-23T00:33:33;5.18;;;4.78;;
24729;SDS011;12832;52.392;13.066;2022-11-23T00:38:29;5.40;;;4.90;;
24729;SDS011;12832;52.392;13.066;2022-11-23T00:41:06;5.03;;;4.63;;
24729;SDS011;12832;52.392;13.066;2022-11-23T00:43:33;5.07;;;4.68;;
24729;SDS011;12832;52.392;13.066;2022-11-23T00:46:07;5.00;;;4.60;;
24729;SDS011;12832;52.392;13.066;2022-11-23T00:48:41;4.80;;;4.40;;
24729;SDS011;12832;52.392;13.066;2022-11-23T00:51:08;3.97;;;3.67;;
24729;SDS011;12832;52.392;13.066;2022-11-23T00:53:36;5.57;;;5.00;;
24729;SDS011;12832;52.392;13.066;2022-11-23T00:56:03;5.03;;;4.63;;
24729;SDS011;12832;52.392;13.066;2022-11-23T00:58:29;4.47;;;4.10;;
24729;SDS011;12832;52.392;13.066;2022-11-23T01:01:00;5.40;;;4.90;;
24729;SDS011;12832;52.392;13.066;2022-11-23T01:03:28;5.10;;;4.60;;
24729;SDS011;12832;52.392;13.066;2022-11-23T01:05:55;4.50;;;4.10;;
24729;SDS011;12832;52.392;13.066;2022-11-23T01:08:26;4.88;;;4.47;;
24729;SDS011;12832;52.392;13.066;2022-11-23T01:10:52;4.50;;;4.10;;
24729;SDS011;12832;52.392;13.066;2022-11-23T01:13:23;5.15;;;4.65;;
24729;SDS011;12832;52.392;13.066;2022-11-23T01:15:49;4.50;;;4.20;;
24729;SDS011;12832;52.392;13.066;2022-11-23T01:18:16;5.00;;;4.60;;
24729;SDS011;12832;52.392;13.066;2022-11-23T01:20:42;5.05;;;4.65;;
24729;SDS011;12832;52.392;13.066;2022-11-23T01:23:08;5.10;;;4.70;;
24729;SDS011;12832;52.392;13.066;2022-11-23T01:25:34;4.80;;;4.40;;
24729;SDS011;12832;52.392;13.066;2022-11-23T01:28:01;5.65;;;5.20;;
24729;SDS011;12832;52.392;13.066;2022-11-23T01:30:27;5.93;;;5.00;;
24729;SDS011;12832;52.392;13.066;2022-11-23T01:32:53;5.55;;;5.07;;
24729;SDS011;12832;52.392;13.066;2022-11-23T01:35:19;5.55;;;4.97;;
24729;SDS011;12832;52.392;13.066;2022-11-23T01:37:45;5.53;;;5.03;;
24729;SDS011;12832;52.392;13.066;2022-11-23T01:40:11;4.97;;;4.53;;
24729;SDS011;12832;52.392;13.066;2022-11-23T01:42:54;4.88;;;4.47;;
24729;SDS011;12832;52.392;13.066;2022-11-23T01:48:12;4.47;;;4.07;;
24729;SDS011;12832;52.392;13.066;2022-11-23T01:50:45;5.22;;;4.82;;
24729;SDS011;12832;52.392;13.066;2022-11-23T01:53:14;5.05;;;4.55;;
24729;SDS011;12832;52.392;13.066;2022-11-23T01:55:41;4.82;;;4.43;;
24729;SDS011;12832;52.392;13.066;2022-11-23T01:58:10;5.10;;;4.70;;
24729;SDS011;12832;52.392;13.066;2022-11-23T02:00:38;4.85;;;4.45;;
24729;SDS011;12832;52.392;13.066;2022-11-23T02:03:05;5.22;;;4.72;;
24729;SDS011;12832;52.392;13.066;2022-11-23T02:05:34;4.63;;;4.22;;
24729;SDS011;12832;52.392;13.066;2022-11-23T02:08:05;4.50;;;4.10;;
24729;SDS011;12832;52.392;13.066;2022-11-23T02:10:32;5.05;;;4.55;;
24729;SDS011;12832;52.392;13.066;2022-11-23T02:13:00;4.47;;;4.13;;
24729;SDS011;12832;52.392;13.066;2022-11-23T02:15:32;5.03;;;4.63;;
24729;SDS011;12832;52.392;13.066;2022-11-23T02:18:00;5.10;;;4.70;;
24729;SDS011;12832;52.392;13.066;2022-11-23T02:20:29;4.95;;;4.55;;
24729;SDS011;12832;52.392;13.066;2022-11-23T02:28:52;4.72;;;4.32;;
24729;SDS011;12832;52.392;13.066;2022-11-23T02:31:02;4.85;;;4.45;;
24729;SDS011;12832;52.392;13.066;2022-11-23T02:33:28;4.97;;;4.57;;
24729;SDS011;12832;52.392;13.066;2022-11-23T02:35:56;5.30;;;4.80;;
24729;SDS011;12832;52.392;13.066;2022-11-23T02:38:24;4.80;;;4.40;;
24729;SDS011;12832;52.392;13.066;2022-11-23T02:40:54;4.93;;;4.53;;
24729;SDS011;12832;52.392;13.066;2022-11-23T02:43:21;5.10;;;4.70;;
24729;SDS011;12832;52.392;13.066;2022-11-23T02:48:21;4.97;;;4.57;;
24729;SDS011;12832;52.392;13.066;2022-11-23T02:50:47;4.63;;;4.22;;
24729;SDS011;12832;52.392;13.066;2022-11-23T02:53:13;5.10;;;4.70;;
24729;SDS011;12832;52.392;13.066;2022-11-23T02:55:39;4.32;;;4.03;;
24729;SDS011;12832;52.392;13.066;2022-11-23T02:58:05;4.68;;;4.28;;
24729;SDS011;12832;52.392;13.066;2022-11-23T03:00:32;4.80;;;4.40;;
24729;SDS011;12832;52.392;13.066;2022-11-23T03:02:59;4.78;;;4.38;;
24729;SDS011;12832;52.392;13.066;2022-11-23T03:05:26;4.28;;;3.92;;
24729;SDS011;12832;52.392;13.066;2022-11-23T03:07:53;5.22;;;4.72;;
24729;SDS011;12832;52.392;13.066;2022-11-23T03:10:19;4.57;;;4.18;;
24729;SDS011;12832;52.392;13.066;2022-11-23T03:12:45;4.65;;;4.25;;
24729;SDS011;12832;52.392;13.066;2022-11-23T03:15:11;5.00;;;4.60;;
24729;SDS011;12832;52.392;13.066;2022-11-23T03:17:37;4.80;;;4.40;;
24729;SDS011;12832;52.392;13.066;2022-11-23T03:20:04;4.88;;;4.47;;
24729;SDS011;12832;52.392;13.066;2022-11-23T03:22:30;4.40;;;4.10;;
24729;SDS011;12832;52.392;13.066;2022-11-23T03:24:56;4.47;;;4.07;;
24729;SDS011;12832;52.392;13.066;2022-11-23T03:27:23;4.55;;;4.15;;
24729;SDS011;12832;52.392;13.066;2022-11-23T03:29:49;4.18;;;3.88;;
24729;SDS011;12832;52.392;13.066;2022-11-23T03:32:15;4.65;;;4.32;;
24729;SDS011;12832;52.392;13.066;2022-11-23T03:34:41;4.70;;;4.30;;
24729;SDS011;12832;52.392;13.066;2022-11-23T03:37:07;4.38;;;3.97;;
24729;SDS011;12832;52.392;13.066;2022-11-23T03:39:33;5.13;;;4.72;;
24729;SDS011;12832;52.392;13.066;2022-11-23T03:41:59;4.65;;;4.25;;
24729;SDS011;12832;52.392;13.066;2022-11-23T03:44:26;4.53;;;4.22;;
24729;SDS011;12832;52.392;13.066;2022-11-23T03:46:52;4.78;;;4.38;;
24729;SDS011;12832;52.392;13.066;2022-11-23T03:49:18;4.78;;;4.35;;
24729;SDS011;12832;52.392;13.066;2022-11-23T03:51:44;5.03;;;4.63;;
24729;SDS011;12832;52.392;13.066;2022-11-23T03:54:10;5.28;;;4.78;;
24729;SDS011;12832;52.392;13.066;2022-11-23T03:56:36;5.03;;;4.63;;
24729;SDS011;12832;52.392;13.066;2022-11-23T03:59:02;4.38;;;4.07;;
24729;SDS011;12832;52.392;13.066;2022-11-23T04:01:28;5.03;;;4.63;;
24729;SDS011;12832;52.392;13.066;2022-11-23T04:03:54;4.40;;;4.00;;
24729;SDS011;12832;52.392;13.066;2022-11-23T04:06:20;5.45;;;5.00;;
24729;SDS011;12832;52.392;13.066;2022-11-23T04:08:46;4.47;;;4.18;;
24729;SDS011;12832;52.392;13.066;2022-11-23T04:11:12;4.82;;;4.43;;
24729;SDS011;12832;52.392;13.066;2022-11-23T04:13:39;4.75;;;4.35;;
24729;SDS011;12832;52.392;13.066;2022-11-23T04:16:05;4.68;;;4.28;;
24729;SDS011;12832;52.392;13.066;2022-11-23T04:18:31;5.20;;;4.80;;
24729;SDS011;12832;52.392;13.066;2022-11-23T04:20:58;4.70;;;4.30;;
24729;SDS011;12832;52.392;13.066;2022-11-23T04:23:24;4.78;;;4.38;;
24729;SDS011;12832;52.392;13.066;2022-11-23T04:25:50;4.82;;;4.45;;
24729;SDS011;12832;52.392;13.066;2022-11-23T04:28:16;5.00;;;4.60;;
24729;SDS011;12832;52.392;13.066;2022-11-23T04:30:42;4.88;;;4.47;;
24729;SDS011;12832;52.392;13.066;2022-11-23T04:33:09;4.95;;;4.55;;
24729;SDS011;12832;52.392;13.066;2022-11-23T04:35:35;4.97;;;4.57;;
24729;SDS011;12832;52.392;13.066;2022-11-23T04:38:01;4.30;;;4.00;;
24729;SDS011;12832;52.392;13.066;2022-11-23T04:40:28;4.85;;;4.45;;
24729;SDS011;12832;52.392;13.066;2022-11-23T04:42:56;4.93;;;4.53;;
24729;SDS011;12832;52.392;13.066;2022-11-23T04:45:27;4.80;;;4.40;;
24729;SDS011;12832;52.392;13.066;2022-11-23T04:47:53;5.05;;;4.60;;
24729;SDS011;12832;52.392;13.066;2022-11-23T04:50:19;5.53;;;5.05;;
24729;SDS011;12832;52.392;13.066;2022-11-23T04:52:45;4.72;;;4.32;;
24729;SDS011;12832;52.392;13.066;2022-11-23T04:55:11;4.63;;;4.22;;
24729;SDS011;12832;52.392;13.066;2022-11-23T04:57:37;4.70;;;4.30;;
24729;SDS011;12832;52.392;13.066;2022-11-23T05:00:03;5.68;;;5.15;;
24729;SDS011;12832;52.392;13.066;2022-11-23T05:02:30;4.85;;;4.45;;
24729;SDS011;12832;52.392;13.066;2022-11-23T05:04:56;4.68;;;4.32;;
24729;SDS011;12832;52.392;13.066;2022-11-23T05:07:22;5.00;;;4.60;;
24729;SDS011;12832;52.392;13.066;2022-11-23T05:09:48;4.97;;;4.57;;
24729;SDS011;12832;52.392;13.066;2022-11-23T05:12:14;4.88;;;4.47;;
24729;SDS011;12832;52.392;13.066;2022-11-23T05:14:40;5.00;;;4.60;;
24729;SDS011;12832;52.392;13.066;2022-11-23T05:17:07;4.70;;;4.30;;
24729;SDS011;12832;52.392;13.066;2022-11-23T05:19:33;4.45;;;4.05;;
24729;SDS011;12832;52.392;13.066;2022-11-23T05:22:00;4.80;;;4.38;;
24729;SDS011;12832;52.392;13.066;2022-11-23T05:24:26;4.85;;;4.40;;
24729;SDS011;12832;52.392;13.066;2022-11-23T05:26:52;4.35;;;4.00;;
24729;SDS011;12832;52.392;13.066;2022-11-23T05:29:21;4.00;;;3.70;;
24729;SDS011;12832;52.392;13.066;2022-11-23T05:31:47;4.53;;;4.20;;
24729;SDS011;12832;52.392;13.066;2022-11-23T05:34:13;4.90;;;4.40;;
24729;SDS011;12832;52.392;13.066;2022-11-23T05:36:39;4.28;;;3.97;;
24729;SDS011;12832;52.392;13.066;2022-11-23T05:39:07;5.43;;;4.93;;
24729;SDS011;12832;52.392;13.066;2022-11-23T05:41:33;4.78;;;4.38;;
24729;SDS011;12832;52.392;13.066;2022-11-23T05:43:59;4.60;;;4.20;;
24729;SDS011;12832;52.392;13.066;2022-11-23T05:46:26;4.85;;;4.45;;
24729;SDS011;12832;52.392;13.066;2022-11-23T05:48:52;4.28;;;3.88;;
24729;SDS011;12832;52.392;13.066;2022-11-23T05:51:19;4.45;;;4.05;;
24729;SDS011;12832;52.392;13.066;2022-11-23T05:53:45;4.70;;;4.30;;
24729;SDS011;12832;52.392;13.066;2022-11-23T05:56:11;4.57;;;4.18;;
24729;SDS011;12832;52.392;13.066;2022-11-23T05:58:37;4.35;;;4.05;;
24729;SDS011;12832;52.392;13.066;2022-11-23T06:01:04;4.10;;;3.80;;
24729;SDS011;12832;52.392;13.066;2022-11-23T06:03:30;3.58;;;3.30;;
24729;SDS011;12832;52.392;13.066;2022-11-23T06:05:56;4.20;;;3.85;;
24729;SDS011;12832;52.392;13.066;2022-11-23T06:08:22;4.13;;;3.72;;
24729;SDS011;12832;52.392;13.066;2022-11-23T06:10:48;4.22;;;3.92;;
24729;SDS011;12832;52.392;13.066;2022-11-23T06:13:14;4.05;;;3.75;;
24729;SDS011;12832;52.392;13.066;2022-11-23T06:15:40;3.85;;;3.55;;
24729;SDS011;12832;52.392;13.066;2022-11-23T06:18:07;4.82;;;4.32;;
24729;SDS011;12832;52.392;13.066;2022-11-23T06:20:34;5.10;;;4.70;;
24729;SDS011;12832;52.392;13.066;2022-11-23T06:23:00;5.10;;;4.40;;
24729;SDS011;12832;52.392;13.066;2022-11-23T06:25:26;4.28;;;3.88;;
24729;SDS011;12832;52.392;13.066;2022-11-23T06:27:53;4.78;;;4.28;;
24729;SDS011;12832;52.392;13.066;2022-11-23T06:30:20;4.40;;;4.07;;
24729;SDS011;12832;52.392;13.066;2022-11-23T06:32:46;5.15;;;4.68;;
24729;SDS011;12832;52.392;13.066;2022-11-23T06:35:12;5.22;;;4.78;;
24729;SDS011;12832;52.392;13.066;2022-11-23T06:37:38;4.80;;;4.40;;
24729;SDS011;12832;52.392;13.066;2022-11-23T06:40:05;5.15;;;4.75;;
24729;SDS011;12832;52.392;13.066;2022-11-23T06:42:31;5.25;;;4.75;;
24729;SDS011;12832;52.392;13.066;2022-11-23T06:45:05;4.95;;;4.55;;
24729;SDS011;12832;52.392;13.066;2022-11-23T06:47:33;4.28;;;3.88;;
24729;SDS011;12832;52.392;13.066;2022-11-23T06:49:59;4.82;;;4.38;;
24729;SDS011;12832;52.392;13.066;2022-11-23T06:52:25;4.93;;;4.53;;
24729;SDS011;12832;52.392;13.066;2022-11-23T06:54:51;5.07;;;4.57;;
24729;SDS011;12832;52.392;13.066;2022-11-23T06:57:17;4.70;;;4.30;;
24729;SDS011;12832;52.392;13.066;2022-11-23T06:59:44;4.57;;;4.15;;
24729;SDS011;12832;52.392;13.066;2022-11-23T07:02:11;5.30;;;4.80;;
24729;SDS011;12832;52.392;13.066;2022-11-23T07:04:37;5.35;;;4.85;;
24729;SDS011;12832;52.392;13.066;2022-11-23T07:07:03;6.32;;;5.70;;
24729;SDS011;12832;52.392;13.066;2022-11-23T07:09:30;4.97;;;4.47;;
24729;SDS011;12832;52.392;13.066;2022-11-23T07:11:56;4.72;;;4.32;;
24729;SDS011;12832;52.392;13.066;2022-11-23T07:14:22;5.50;;;5.00;;
24729;SDS011;12832;52.392;13.066;2022-11-23T07:16:48;7.32;;;6.55;;
24729;SDS011;12832;52.392;13.066;2022-11-23T07:19:14;6.05;;;5.45;;
24729;SDS011;12832;52.392;13.066;2022-11-23T07:21:40;5.35;;;4.85;;
24729;SDS011;12832;52.392;13.066;2022-11-23T07:24:06;5.63;;;5.13;;
24729;SDS011;12832;52.392;13.066;2022-11-23T07:26:32;5.90;;;5.40;;
24729;SDS011;12832;52.392;13.066;2022-11-23T07:28:59;7.55;;;6.78;;
24729;SDS011;12832;52.392;13.066;2022-11-23T07:31:25;6.70;;;6.10;;
24729;SDS011;12832;52.392;13.066;2022-11-23T07:33:51;5.88;;;5.38;;
24729;SDS011;12832;52.392;13.066;2022-11-23T07:36:17;6.13;;;5.13;;
24729;SDS011;12832;52.392;13.066;2022-11-23T07:38:44;5.85;;;5.35;;
24729;SDS011;12832;52.392;13.066;2022-11-23T07:41:10;5.93;;;5.43;;
24729;SDS011;12832;52.392;13.066;2022-11-23T07:43:36;5.90;;;5.40;;
24729;SDS011;12832;52.392;13.066;2022-11-23T07:46:02;5.53;;;5.03;;
24729;SDS011;12832;52.392;13.066;2022-11-23T07:48:28;6.78;;;5.90;;
24729;SDS011;12832;52.392;13.066;2022-11-23T07:51:01;5.70;;;5.20;;
24729;SDS011;12832;52.392;13.066;2022-11-23T07:53:27;5.68;;;5.18;;
24729;SDS011;12832;52.392;13.066;2022-11-23T07:55:56;5.85;;;5.32;;
24729;SDS011;12832;52.392;13.066;2022-11-23T07:58:25;5.57;;;5.07;;
24729;SDS011;12832;52.392;13.066;2022-11-23T08:00:51;5.85;;;5.35;;
24729;SDS011;12832;52.392;13.066;2022-11-23T08:03:18;6.55;;;5.07;;
24729;SDS011;12832;52.392;13.066;2022-11-23T08:05:53;5.57;;;4.97;;
24729;SDS011;12832;52.392;13.066;2022-11-23T08:08:19;5.65;;;5.15;;
24729;SDS011;12832;52.392;13.066;2022-11-23T08:10:45;6.95;;;5.43;;
24729;SDS011;12832;52.392;13.066;2022-11-23T08:13:18;5.93;;;5.43;;
24729;SDS011;12832;52.392;13.066;2022-11-23T08:15:45;5.78;;;5.20;;
24729;SDS011;12832;52.392;13.066;2022-11-23T08:18:19;6.20;;;5.60;;
24729;SDS011;12832;52.392;13.066;2022-11-23T08:20:45;6.20;;;5.50;;
24729;SDS011;12832;52.392;13.066;2022-11-23T08:23:11;5.40;;;4.53;;
24729;SDS011;12832;52.392;13.066;2022-11-23T08:25:38;5.63;;;5.13;;
24729;SDS011;12832;52.392;13.066;2022-11-23T08:28:04;4.75;;;4.35;;
24729;SDS011;12832;52.392;13.066;2022-11-23T08:30:31;4.82;;;4.25;;
24729;SDS011;12832;52.392;13.066;2022-11-23T08:32:58;4.65;;;4.15;;
24729;SDS011;12832;52.392;13.066;2022-11-23T08:35:27;6.15;;;5.47;;
24729;SDS011;12832;52.392;13.066;2022-11-23T08:37:53;6.13;;;5.25;;
24729;SDS011;12832;52.392;13.066;2022-11-23T08:40:19;5.03;;;4.53;;
24729;SDS011;12832;52.392;13.066;2022-11-23T08:42:51;5.90;;;5.28;;
24729;SDS011;12832;52.392;13.066;2022-11-23T08:45:17;4.75;;;4.35;;
24729;SDS011;12832;52.392;13.066;2022-11-23T08:47:43;5.43;;;4.90;;
24729;SDS011;12832;52.392;13.066;2022-11-23T08:50:09;6.07;;;5.47;;
24729;SDS011;12832;52.392;13.066;2022-11-23T08:52:35;7.38;;;6.53;;
24729;SDS011;12832;52.392;13.066;2022-11-23T08:55:01;5.80;;;4.88;;
24729;SDS011;12832;52.392;13.066;2022-11-23T08:57:28;6.60;;;5.85;;
24729;SDS011;12832;52.392;13.066;2022-11-23T08:59:54;5.95;;;5.38;;
24729;SDS011;12832;52.392;13.066;2022-11-23T09:02:20;6.15;;;5.55;;
24729;SDS011;12832;52.392;13.066;2022-11-23T09:04:46;5.63;;;5.13;;
24729;SDS011;12832;52.392;13.066;2022-11-23T09:07:12;6.28;;;5.68;;
24729;SDS011;12832;52.392;13.066;2022-11-23T09:09:38;6.82;;;6.05;;
24729;SDS011;12832;52.392;13.066;2022-11-23T09:12:05;6.22;;;5.63;;
24729;SDS011;12832;52.392;13.066;2022-11-23T09:14:31;6.40;;;5.65;;
24729;SDS011;12832;52.392;13.066;2022-11-23T09:16:59;6.30;;;5.43;;
24729;SDS011;12832;52.392;13.066;2022-11-23T09:19:26;5.80;;;5.25;;
24729;SDS011;12832;52.392;13.066;2022-11-23T09:21:52;6.00;;;5.40;;
24729;SDS011;12832;52.392;13.066;2022-11-23T09:24:18;5.30;;;4.80;;
24729;SDS011;12832;52.392;13.066;2022-11-23T09:26:45;5.30;;;4.80;;
24729;SDS011;12832;52.392;13.066;2022-11-23T09:29:11;6.28;;;4.78;;
24729;SDS011;12832;52.392;13.066;2022-11-23T09:31:37;5.18;;;4.60;;
24729;SDS011;12832;52.392;13.066;2022-11-23T09:34:03;5.90;;;4.95;;
24729;SDS011;12832;52.392;13.066;2022-11-23T09:36:30;5.45;;;5.00;;
24729;SDS011;12832;52.392;13.066;2022-11-23T09:38:56;6.93;;;5.00;;
24729;SDS011;12832;52.392;13.066;2022-11-23T09:52:34;6.38;;;4.80;;
24729;SDS011;12832;52.392;13.066;2022-11-23T09:55:04;4.90;;;4.50;;
24729;SDS011;12832;52.392;13.066;2022-11-23T09:57:38;4.57;;;4.18;;
24729;SDS011;12832;52.392;13.066;2022-11-23T10:00:15;4.85;;;4.45;;
24729;SDS011;12832;52.392;13.066;2022-11-23T10:02:42;4.80;;;4.20;;
24729;SDS011;12832;52.392;13.066;2022-11-23T10:05:21;4.88;;;4.43;;
24729;SDS011;12832;52.392;13.066;2022-11-23T10:13:42;4.28;;;3.88;;
24729;SDS011;12832;52.392;13.066;2022-11-23T10:16:23;4.70;;;4.30;;
24729;SDS011;12832;52.392;13.066;2022-11-23T10:26:50;4.20;;;3.80;;
24729;SDS011;12832;52.392;13.066;2022-11-23T10:31:59;4.32;;;3.92;;
24729;SDS011;12832;52.392;13.066;2022-11-23T10:37:21;6.40;;;4.03;;
24729;SDS011;12832;52.392;13.066;2022-11-23T10:39:47;3.95;;;3.58;;
24729;SDS011;12832;52.392;13.066;2022-11-23T10:42:17;5.13;;;4.30;;
24729;SDS011;12832;52.392;13.066;2022-11-23T10:45:00;4.50;;;4.10;;
24729;SDS011;12832;52.392;13.066;2022-11-23T10:47:37;4.75;;;3.80;;
24729;SDS011;12832;52.392;13.066;2022-11-23T10:50:29;4.47;;;4.07;;
24729;SDS011;12832;52.392;13.066;2022-11-23T10:55:32;4.50;;;4.10;;
24729;SDS011;12832;52.392;13.066;2022-11-23T10:58:27;5.05;;;3.40;;
24729;SDS011;12832;52.392;13.066;2022-11-23T11:00:59;4.10;;;3.72;;
24729;SDS011;12832;52.392;13.066;2022-11-23T11:03:30;4.05;;;3.33;;
24729;SDS011;12832;52.392;13.066;2022-11-23T11:05:58;3.92;;;3.53;;
24729;SDS011;12832;52.392;13.066;2022-11-23T11:08:35;4.00;;;3.60;;
24729;SDS011;12832;52.392;13.066;2022-11-23T11:11:27;3.90;;;3.35;;
24729;SDS011;12832;52.392;13.066;2022-11-23T11:14:14;3.65;;;3.35;;
24729;SDS011;12832;52.392;13.066;2022-11-23T11:19:24;3.47;;;3.17;;
24729;SDS011;12832;52.392;13.066;2022-11-23T11:22:24;3.88;;;3.55;;
24729;SDS011;12832;52.392;13.066;2022-11-23T11:24:58;3.65;;;3.35;;
24729;SDS011;12832;52.392;13.066;2022-11-23T11:27:25;4.63;;;3.35;;
24729;SDS011;12832;52.392;13.066;2022-11-23T11:29:54;4.90;;;3.70;;
24729;SDS011;12832;52.392;13.066;2022-11-23T11:35:13;3.40;;;3.10;;
24729;SDS011;12832;52.392;13.066;2022-11-23T11:37:50;4.70;;;3.42;;
24729;SDS011;12832;52.392;13.066;2022-11-23T11:40:27;3.35;;;3.05;;
24729;SDS011;12832;52.392;13.066;2022-11-23T11:43:00;3.60;;;3.30;;
24729;SDS011;12832;52.392;13.066;2022-11-23T11:46:01;5.40;;;3.60;;
24729;SDS011;12832;52.392;13.066;2022-11-23T11:48:58;3.25;;;2.95;;
24729;SDS011;12832;52.392;13.066;2022-11-23T11:51:44;4.30;;;3.30;;
24729;SDS011;12832;52.392;13.066;2022-11-23T11:57:10;3.85;;;3.40;;
24729;SDS011;12832;52.392;13.066;2022-11-23T11:59:46;3.42;;;3.13;;
24729;SDS011;12832;52.392;13.066;2022-11-23T12:02:22;3.53;;;3.22;;
24729;SDS011;12832;52.392;13.066;2022-11-23T12:04:56;3.45;;;3.15;;
24729;SDS011;12832;52.392;13.066;2022-11-23T12:07:29;3.15;;;2.85;;
24729;SDS011;12832;52.392;13.066;2022-11-23T12:10:00;3.60;;;3.30;;
24729;SDS011;12832;52.392;13.066;2022-11-23T12:12:32;3.72;;;3.03;;
24729;SDS011;12832;52.392;13.066;2022-11-23T12:15:00;4.22;;;2.80;;
24729;SDS011;12832;52.392;13.066;2022-11-23T12:20:26;3.60;;;3.10;;
24729;SDS011;12832;52.392;13.066;2022-11-23T12:25:51;3.20;;;2.90;;
24729;SDS011;12832;52.392;13.066;2022-11-23T12:31:15;4.63;;;3.03;;
24729;SDS011;12832;52.392;13.066;2022-11-23T12:34:07;3.80;;;2.80;;
24729;SDS011;12832;52.392;13.066;2022-11-23T12:37:00;13.07;;;4.15;;
24729;SDS011;12832;52.392;13.066;2022-11-23T12:47:43;9.50;;;4.10;;
24729;SDS011;12832;52.392;13.066;2022-11-23T12:50:42;8.45;;;4.25;;
24729;SDS011;12832;52.392;13.066;2022-11-23T12:53:27;9.15;;;3.95;;
24729;SDS011;12832;52.392;13.066;2022-11-23T12:56:09;10.23;;;3.97;;
24729;SDS011;12832;52.392;13.066;2022-11-23T12:58:46;7.30;;;4.28;;
24729;SDS011;12832;52.392;13.066;2022-11-23T13:01:21;10.13;;;4.25;;
24729;SDS011;12832;52.392;13.066;2022-11-23T13:09:54;5.00;;;3.90;;
24729;SDS011;12832;52.392;13.066;2022-11-23T13:21:32;5.90;;;3.55;;
24729;SDS011;12832;52.392;13.066;2022-11-23T13:24:02;4.95;;;4.13;;
24729;SDS011;12832;52.392;13.066;2022-11-23T13:26:29;8.13;;;4.13;;
24729;SDS011;12832;52.392;13.066;2022-11-23T13:28:56;6.10;;;4.03;;
24729;SDS011;12832;52.392;13.066;2022-11-23T13:31:27;8.75;;;4.72;;
24729;SDS011;12832;52.392;13.066;2022-11-23T13:33:56;5.03;;;4.13;;
24729;SDS011;12832;52.392;13.066;2022-11-23T13:42:12;4.75;;;4.30;;
24729;SDS011;12832;52.392;13.066;2022-11-23T13:44:38;9.38;;;4.70;;
24729;SDS011;12832;52.392;13.066;2022-11-23T13:47:05;6.45;;;4.10;;
24729;SDS011;12832;52.392;13.066;2022-11-23T13:49:41;4.72;;;3.83;;
24729;SDS011;12832;52.392;13.066;2022-11-23T13:54:54;4.68;;;3.53;;
24729;SDS011;12832;52.392;13.066;2022-11-23T13:57:42;5.13;;;3.63;;
24729;SDS011;12832;52.392;13.066;2022-11-23T14:25:43;6.07;;;3.80;;
24729;SDS011;12832;52.392;13.066;2022-11-23T14:28:39;4.80;;;4.10;;
24729;SDS011;12832;52.392;13.066;2022-11-23T14:36:59;6.00;;;3.88;;
24729;SDS011;12832;52.392;13.066;2022-11-23T14:42:27;3.85;;;3.55;;
24729;SDS011;12832;52.392;13.066;2022-11-23T14:44:55;5.90;;;3.70;;
24729;SDS011;12832;52.392;13.066;2022-11-23T14:47:27;5.03;;;3.92;;
24729;SDS011;12832;52.392;13.066;2022-11-23T14:49:55;4.95;;;3.90;;
24729;SDS011;12832;52.392;13.066;2022-11-23T14:52:23;5.43;;;3.92;;
24729;SDS011;12832;52.392;13.066;2022-11-23T14:54:53;3.75;;;3.45;;
24729;SDS011;12832;52.392;13.066;2022-11-23T14:57:22;4.53;;;4.13;;
24729;SDS011;12832;52.392;13.066;2022-11-23T14:59:56;3.90;;;3.60;;
24729;SDS011;12832;52.392;13.066;2022-11-23T15:02:38;4.50;;;4.07;;
24729;SDS011;12832;52.392;13.066;2022-11-23T15:05:22;4.55;;;3.10;;
24729;SDS011;12832;52.392;13.066;2022-11-23T15:08:00;3.10;;;2.80;;
24729;SDS011;12832;52.392;13.066;2022-11-23T15:10:47;3.10;;;2.78;;
24729;SDS011;12832;52.392;13.066;2022-11-23T15:13:28;2.85;;;2.58;;
24729;SDS011;12832;52.392;13.066;2022-11-23T15:15:56;2.70;;;2.50;;
24729;SDS011;12832;52.392;13.066;2022-11-23T15:21:01;2.60;;;2.40;;
24729;SDS011;12832;52.392;13.066;2022-11-23T15:24:02;2.47;;;2.28;;
24729;SDS011;12832;52.392;13.066;2022-11-23T15:26:25;2.80;;;2.50;;
24729;SDS011;12832;52.392;13.066;2022-11-23T15:29:29;3.42;;;2.78;;
24729;SDS011;12832;52.392;13.066;2022-11-23T15:32:00;2.80;;;2.25;;
24729;SDS011;12832;52.392;13.066;2022-11-23T15:34:47;2.58;;;2.38;;
24729;SDS011;12832;52.392;13.066;2022-11-23T15:37:14;2.70;;;2.50;;
24729;SDS011;12832;52.392;13.066;2022-11-23T15:39:42;2.97;;;2.50;;
24729;SDS011;12832;52.392;13.066;2022-11-23T15:42:15;3.10;;;2.65;;
24729;SDS011;12832;52.392;13.066;2022-11-23T15:44:44;2.33;;;2.10;;
24729;SDS011;12832;52.392;13.066;2022-11-23T15:47:30;2.40;;;2.17;;
24729;SDS011;12832;52.392;13.066;2022-11-23T15:49:58;2.65;;;2.22;;
24729;SDS011;12832;52.392;13.066;2022-11-23T15:52:27;2.30;;;2.10;;
24729;SDS011;12832;52.392;13.066;2022-11-23T15:55:05;2.65;;;2.40;;
24729;SDS011;12832;52.392;13.066;2022-11-23T15:57:35;2.75;;;2.35;;
24729;SDS011;12832;52.392;13.066;2022-11-23T16:00:03;2.85;;;2.60;;
24729;SDS011;12832;52.392;13.066;2022-11-23T16:02:30;2.63;;;2.42;;
24729;SDS011;12832;52.392;13.066;2022-11-23T16:05:11;2.55;;;2.35;;
24729;SDS011;12832;52.392;13.066;2022-11-23T16:10:22;3.45;;;2.42;;
24729;SDS011;12832;52.392;13.066;2022-11-23T16:12:57;3.17;;;2.83;;
24729;SDS011;12832;52.392;13.066;2022-11-23T16:15:29;2.80;;;2.60;;
24729;SDS011;12832;52.392;13.066;2022-11-23T16:18:00;2.90;;;2.60;;
24729;SDS011;12832;52.392;13.066;2022-11-23T16:20:27;2.67;;;2.47;;
24729;SDS011;12832;52.392;13.066;2022-11-23T16:22:54;3.38;;;2.42;;
24729;SDS011;12832;52.392;13.066;2022-11-23T16:25:33;4.18;;;2.50;;
24729;SDS011;12832;52.392;13.066;2022-11-23T16:28:23;2.80;;;2.53;;
24729;SDS011;12832;52.392;13.066;2022-11-23T16:30:51;4.50;;;2.65;;
24729;SDS011;12832;52.392;13.066;2022-11-23T16:33:18;3.13;;;2.67;;
24729;SDS011;12832;52.392;13.066;2022-11-23T16:35:45;2.90;;;2.53;;
24729;SDS011;12832;52.392;13.066;2022-11-23T16:38:11;3.25;;;2.60;;
24729;SDS011;12832;52.392;13.066;2022-11-23T16:40:38;3.33;;;2.47;;
24729;SDS011;12832;52.392;13.066;2022-11-23T16:43:09;3.40;;;3.10;;
24729;SDS011;12832;52.392;13.066;2022-11-23T16:45:37;2.63;;;2.42;;
24729;SDS011;12832;52.392;13.066;2022-11-23T16:48:21;3.28;;;2.55;;
24729;SDS011;12832;52.392;13.066;2022-11-23T16:50:54;3.15;;;2.83;;
24729;SDS011;12832;52.392;13.066;2022-11-23T16:53:21;2.88;;;2.58;;
24729;SDS011;12832;52.392;13.066;2022-11-23T16:55:52;3.10;;;2.80;;
24729;SDS011;12832;52.392;13.066;2022-11-23T16:58:20;3.38;;;2.80;;
24729;SDS011;12832;52.392;13.066;2022-11-23T17:00:47;2.92;;;2.70;;
24729;SDS011;12832;52.392;13.066;2022-11-23T17:03:14;4.22;;;2.72;;